Cartago, Costa Rica
Current Conditions -  °F | °C
As of 8:00 AM on Thursday 30 Oct 2014 (Local Time) from MRPV Reporting Station
Broken Clouds Broken Clouds  
Wind Chill: 75°   Ceiling: 30000
Heat Index: 75°   Visibility: 6mi
Dew Point: 61°   Wind: 18mph
Humidity: 61%   Direction: 70°ENE
Pressure: 29.99"   Gusts: NA
Location:  9.87°N, 83.93°W
Report Text: MRPV 301400Z 07016KT 9999 FEW045 BKN300 24/16 A2999 NOSIG
Loading
Personal Weather Stations






























Interactive Weather Map
Tropical Storm Tracking
New forecast layout! Learn more

10-Day Weather Forecast

Advertisements
Track Severe Weather on mobile